Time;durP1;ratioP1;P1;durP2;ratioP2;P2;SDS_P1;SDS_P2;PMS_P1;PMS_P2;Temp;Humidity;BMP_temperature;BMP_pressure;BME280_temperature;BME280_humidity;BME280_pressure;Samples;Min_cycle;Max_cycle;Signal;HPM_P1;HPM_P2
2023/07/02 00:01:56;;;;;;;2.00;1.80;;;17.80;99.90;;;;;;5047790;28;20298;-78
2023/07/02 00:04:23;;;;;;;1.70;1.70;;;17.80;99.90;;;;;;5047827;28;20271;-78
2023/07/02 00:06:52;;;;;;;2.00;1.80;;;17.80;99.90;;;;;;5047958;28;20303;-78
2023/07/02 00:09:19;;;;;;;2.07;1.93;;;17.80;99.90;;;;;;5048276;28;20219;-77
2023/07/02 00:11:46;;;;;;;2.53;1.87;;;17.80;99.90;;;;;;5047061;28;20338;-77
2023/07/02 00:14:14;;;;;;;3.13;1.90;;;17.70;99.90;;;;;;5046730;28;20748;-77
2023/07/02 00:16:44;;;;;;;2.47;2.00;;;17.70;99.90;;;;;;5047173;28;20306;-77
2023/07/02 00:19:11;;;;;;;2.20;2.10;;;17.70;99.90;;;;;;5044551;28;20706;-76
2023/07/02 00:21:40;;;;;;;2.37;2.10;;;17.70;99.90;;;;;;5044393;28;20287;-77
2023/07/02 00:24:09;;;;;;;2.00;1.90;;;17.80;99.90;;;;;;5044746;28;20614;-77
2023/07/02 00:26:37;;;;;;;2.60;2.40;;;17.70;99.90;;;;;;5043960;28;20299;-77
2023/07/02 00:29:05;;;;;;;2.20;2.10;;;17.70;99.90;;;;;;5044374;28;20205;-77
2023/07/02 00:31:33;;;;;;;2.40;2.30;;;17.70;99.90;;;;;;5044144;28;20266;-76
2023/07/02 00:34:01;;;;;;;2.77;2.50;;;17.70;99.90;;;;;;5025236;28;20295;-77
2023/07/02 00:36:28;;;;;;;2.57;2.43;;;17.70;99.90;;;;;;5026294;28;20205;-77
2023/07/02 00:38:55;;;;;;;3.53;2.97;;;17.70;99.90;;;;;;5044574;28;22187;-77
2023/07/02 00:41:24;;;;;;;2.50;2.40;;;17.80;99.90;;;;;;5044319;28;20779;-77
2023/07/02 00:43:54;;;;;;;3.97;2.83;;;17.70;99.90;;;;;;5045014;28;20645;-77
2023/07/02 00:46:22;;;;;;;2.80;2.63;;;17.70;99.90;;;;;;5046399;28;20326;-76
2023/07/02 00:48:49;;;;;;;2.70;2.60;;;17.60;99.90;;;;;;5048563;28;20212;-76
2023/07/02 00:51:18;;;;;;;2.80;2.70;;;17.70;99.90;;;;;;5048428;28;20718;-76
2023/07/02 00:53:45;;;;;;;3.37;3.07;;;17.60;99.90;;;;;;5032331;28;20291;-76
2023/07/02 00:56:12;;;;;;;4.70;3.50;;;17.70;99.90;;;;;;5028134;28;20735;-75
2023/07/02 00:58:46;;;;;;;3.40;3.20;;;17.60;99.90;;;;;;5028039;28;20218;-76
2023/07/02 01:01:13;;;;;;;3.57;3.27;;;17.60;99.90;;;;;;5044403;28;20654;-76
2023/07/02 01:03:53;;;;;;;3.50;3.30;;;17.60;99.90;;;;;;5047521;28;20212;-77
2023/07/02 01:06:24;;;;;;;4.17;3.70;;;17.60;99.90;;;;;;5047939;28;20287;-77
2023/07/02 01:08:52;;;;;;;4.20;3.80;;;17.50;99.90;;;;;;5048127;28;20596;-75
2023/07/02 01:11:20;;;;;;;5.03;3.77;;;17.50;99.90;;;;;;5047660;28;20219;-76
2023/07/02 01:13:49;;;;;;;3.73;3.53;;;17.50;99.90;;;;;;5047838;28;20574;-76
2023/07/02 01:16:16;;;;;;;4.47;3.70;;;17.50;99.90;;;;;;5048050;28;20219;-76
2023/07/02 01:18:44;;;;;;;4.30;4.00;;;17.60;99.90;;;;;;5047938;28;20562;-76
2023/07/02 01:21:13;;;;;;;5.33;4.40;;;17.50;99.90;;;;;;5047475;28;20685;-75
2023/07/02 01:23:39;;;;;;;4.53;4.00;;;17.50;99.90;;;;;;5047175;28;20751;-75
2023/07/02 01:26:06;;;;;;;4.00;3.80;;;17.50;99.90;;;;;;5047344;28;20207;-75
2023/07/02 01:28:37;;;;;;;4.47;4.17;;;17.50;99.90;;;;;;5047334;28;20216;-75
2023/07/02 01:31:05;;;;;;;4.67;4.37;;;17.50;99.90;;;;;;5047333;28;20204;-76
2023/07/02 01:33:32;;;;;;;4.83;4.33;;;17.40;99.90;;;;;;5047015;28;20667;-75
2023/07/02 01:35:59;;;;;;;5.00;4.50;;;17.50;99.90;;;;;;5047165;28;20730;-75
2023/07/02 01:38:28;;;;;;;4.57;4.27;;;17.40;99.90;;;;;;5047098;28;20575;-75
2023/07/02 01:40:54;;;;;;;5.80;5.20;;;17.40;99.90;;;;;;5046603;28;20259;-75
2023/07/02 01:43:21;;;;;;;7.23;5.00;;;17.40;99.90;;;;;;5046798;28;20295;-75
2023/07/02 01:45:49;;;;;;;5.57;5.17;;;17.30;99.90;;;;;;5047132;28;20212;-75
2023/07/02 01:48:15;;;;;;;5.70;5.30;;;17.30;99.90;;;;;;5046908;28;20742;-75
2023/07/02 01:50:42;;;;;;;5.50;5.00;;;17.30;99.90;;;;;;5047064;28;20742;-75
2023/07/02 01:53:09;;;;;;;5.23;4.80;;;17.30;99.90;;;;;;5047126;28;20687;-75
2023/07/02 01:55:37;;;;;;;5.77;5.20;;;17.40;99.90;;;;;;5046887;28;20671;-75
2023/07/02 01:58:04;;;;;;;7.10;4.97;;;17.40;99.90;;;;;;5046824;28;20436;-76
2023/07/02 02:00:31;;;;;;;5.10;4.77;;;17.40;99.90;;;;;;5047069;28;20262;-76
2023/07/02 02:02:58;;;;;;;5.07;4.67;;;17.40;99.90;;;;;;5047218;28;20235;-76
2023/07/02 02:05:25;;;;;;;5.23;4.77;;;17.30;99.90;;;;;;5046541;28;20764;-77
2023/07/02 02:07:52;;;;;;;5.07;4.77;;;17.30;99.90;;;;;;5046521;28;20212;-76
2023/07/02 02:10:19;;;;;;;5.80;5.30;;;17.30;99.90;;;;;;5046794;28;20208;-79
2023/07/02 02:12:47;;;;;;;5.57;4.47;;;17.40;99.90;;;;;;5046747;28;20211;-80
2023/07/02 02:15:14;;;;;;;4.60;4.17;;;17.40;99.90;;;;;;5046794;28;20212;-80
2023/07/02 02:17:41;;;;;;;4.60;4.30;;;17.40;99.90;;;;;;5046937;28;20204;-80
2023/07/02 02:20:09;;;;;;;4.47;3.97;;;17.40;99.90;;;;;;5046330;28;20231;-75
2023/07/02 02:22:36;;;;;;;6.20;4.73;;;17.40;99.90;;;;;;5046027;28;20274;-79
2023/07/02 02:25:04;;;;;;;5.43;4.30;;;17.30;99.90;;;;;;5047342;28;20239;-79
2023/07/02 02:27:32;;;;;;;4.50;3.70;;;17.30;99.90;;;;;;5047107;28;20200;-77
2023/07/02 02:30:00;;;;;;;4.73;4.33;;;17.30;99.90;;;;;;5046593;28;20266;-77
2023/07/02 02:32:27;;;;;;;4.77;4.47;;;17.20;99.90;;;;;;5046639;28;20244;-77
2023/07/02 02:34:54;;;;;;;4.63;4.10;;;17.20;99.90;;;;;;5046490;28;20200;-77
2023/07/02 02:37:23;;;;;;;5.10;4.70;;;17.20;99.90;;;;;;5046502;28;20297;-76
2023/07/02 02:39:50;;;;;;;4.87;4.30;;;17.20;99.90;;;;;;5046106;28;21057;-77
2023/07/02 02:42:17;;;;;;;5.60;3.83;;;17.20;99.90;;;;;;5046406;28;20296;-77
2023/07/02 02:44:44;;;;;;;4.60;4.30;;;17.20;99.90;;;;;;5046434;28;20192;-76
2023/07/02 02:47:12;;;;;;;4.73;4.20;;;17.10;99.90;;;;;;5046446;28;20319;-78
2023/07/02 02:49:40;;;;;;;6.00;4.50;;;17.10;99.90;;;;;;5046666;28;20226;-78
2023/07/02 02:52:07;;;;;;;5.03;4.57;;;17.10;99.90;;;;;;5046263;28;20573;-75
2023/07/02 02:54:34;;;;;;;6.73;4.43;;;17.00;99.90;;;;;;5045463;28;20952;-75
2023/07/02 02:57:01;;;;;;;5.43;4.30;;;17.00;99.90;;;;;;5045855;28;20291;-78
2023/07/02 02:59:28;;;;;;;4.70;4.30;;;17.00;99.90;;;;;;5045818;28;20295;-78
2023/07/02 03:01:55;;;;;;;5.33;4.53;;;16.90;99.90;;;;;;5045689;28;20752;-79
2023/07/02 03:04:24;;;;;;;5.83;4.30;;;17.00;99.90;;;;;;5045614;28;20295;-77
2023/07/02 03:06:52;;;;;;;4.50;4.20;;;17.00;99.90;;;;;;5045850;28;20676;-79
2023/07/02 03:09:19;;;;;;;4.67;4.27;;;16.90;99.90;;;;;;5045811;28;20666;-80
2023/07/02 03:11:47;;;;;;;4.67;4.27;;;16.90;99.90;;;;;;5045305;28;20649;-77
2023/07/02 03:14:14;;;;;;;3.83;3.60;;;16.90;99.90;;;;;;5045928;28;20208;-77
2023/07/02 03:16:41;;;;;;;6.40;4.80;;;16.90;99.90;;;;;;5045603;28;20208;-77
2023/07/02 03:19:08;;;;;;;5.63;4.23;;;16.90;99.90;;;;;;5045505;28;20307;-77
2023/07/02 03:21:36;;;;;;;4.23;3.93;;;16.90;99.90;;;;;;5044989;28;20718;-77
2023/07/02 03:24:03;;;;;;;4.73;4.13;;;16.90;99.90;;;;;;5045465;28;20212;-82
2023/07/02 03:26:30;;;;;;;4.00;3.57;;;16.80;99.90;;;;;;5045118;28;20212;-78
2023/07/02 03:28:57;;;;;;;5.50;3.77;;;16.90;99.90;;;;;;5044788;28;20291;-78
2023/07/02 03:31:24;;;;;;;5.33;4.27;;;16.90;99.90;;;;;;5045319;28;20980;-75
2023/07/02 03:33:51;;;;;;;6.20;4.30;;;16.80;99.90;;;;;;5045219;28;20334;-76
2023/07/02 03:36:18;;;;;;;4.33;4.03;;;16.80;99.90;;;;;;5045024;28;20215;-76
2023/07/02 03:38:46;;;;;;;4.63;3.80;;;16.80;99.90;;;;;;5045233;28;20232;-75
2023/07/02 03:41:13;;;;;;;3.60;3.30;;;16.80;99.90;;;;;;5045052;28;20250;-76
2023/07/02 03:43:40;;;;;;;4.47;3.50;;;16.80;99.90;;;;;;5045208;28;20208;-75
2023/07/02 03:46:07;;;;;;;4.20;3.77;;;16.80;99.90;;;;;;5044873;28;20214;-76
2023/07/02 03:48:34;;;;;;;4.17;3.73;;;16.80;99.90;;;;;;5045020;28;20349;-76
2023/07/02 03:51:02;;;;;;;3.00;2.80;;;16.80;99.90;;;;;;5044772;28;20247;-75
2023/07/02 03:53:29;;;;;;;3.37;2.90;;;16.90;99.90;;;;;;5045068;28;20299;-76
2023/07/02 03:55:57;;;;;;;3.90;3.23;;;16.90;99.90;;;;;;5045509;28;20258;-75
2023/07/02 03:58:24;;;;;;;3.93;2.90;;;16.80;99.90;;;;;;5045129;28;20207;-76
2023/07/02 04:00:51;;;;;;;3.50;3.20;;;16.80;99.90;;;;;;5044716;28;20385;-77
2023/07/02 04:03:18;;;;;;;3.20;3.00;;;16.90;99.90;;;;;;5045030;28;20290;-76
2023/07/02 04:05:45;;;;;;;3.00;2.80;;;16.90;99.90;;;;;;5044894;28;20303;-76
2023/07/02 04:08:12;;;;;;;3.57;3.27;;;17.00;99.90;;;;;;5044697;28;20257;-77
2023/07/02 04:10:39;;;;;;;3.63;2.83;;;17.00;99.90;;;;;;5044784;28;20212;-76
2023/07/02 04:13:07;;;;;;;3.60;3.10;;;16.90;99.90;;;;;;5045155;28;20691;-78
2023/07/02 04:15:34;;;;;;;4.23;3.10;;;17.00;99.90;;;;;;5045329;28;20699;-79
2023/07/02 04:18:01;;;;;;;3.67;3.37;;;16.90;99.90;;;;;;5045370;28;20970;-79
2023/07/02 04:20:28;;;;;;;2.90;2.70;;;17.00;99.90;;;;;;5045249;28;20228;-79
2023/07/02 04:22:55;;;;;;;4.40;2.80;;;17.00;99.90;;;;;;5044490;28;20265;-78
2023/07/02 04:25:22;;;;;;;7.60;3.20;;;17.00;99.90;;;;;;5048991;28;20239;-78
2023/07/02 04:27:49;;;;;;;3.23;2.73;;;17.00;99.90;;;;;;5049801;28;20242;-79
2023/07/02 04:30:18;;;;;;;3.77;3.20;;;17.00;99.90;;;;;;5049626;28;20217;-79
2023/07/02 04:32:44;;;;;;;3.83;3.27;;;17.10;99.90;;;;;;5049433;28;20208;-79
2023/07/02 04:35:12;;;;;;;3.10;2.70;;;17.10;99.90;;;;;;5049310;28;20293;-79
2023/07/02 04:37:38;;;;;;;4.43;3.47;;;17.10;99.90;;;;;;5048210;28;20215;-80
2023/07/02 04:40:09;;;;;;;5.33;3.07;;;17.20;99.90;;;;;;5047876;28;20346;-76
2023/07/02 04:42:37;;;;;;;3.90;2.70;;;17.20;99.90;;;;;;5048440;28;20224;-77
2023/07/02 04:45:05;;;;;;;3.60;2.80;;;17.20;99.90;;;;;;5048136;28;20208;-77
2023/07/02 04:47:33;;;;;;;5.47;3.00;;;17.10;99.90;;;;;;5047830;28;20273;-77
2023/07/02 04:50:00;;;;;;;5.60;3.03;;;17.10;99.90;;;;;;5048413;28;20236;-77
2023/07/02 04:52:27;;;;;;;3.13;2.90;;;17.20;99.90;;;;;;5047923;28;20261;-77
2023/07/02 04:54:55;;;;;;;3.33;2.90;;;17.20;99.90;;;;;;5048108;28;20371;-77
2023/07/02 04:57:22;;;;;;;2.93;2.50;;;17.20;99.90;;;;;;5048528;28;20215;-77
2023/07/02 04:59:50;;;;;;;3.83;2.80;;;17.30;99.90;;;;;;5048545;28;20295;-76
2023/07/02 05:02:17;;;;;;;3.17;2.67;;;17.30;99.90;;;;;;5047905;28;20307;-76
2023/07/02 05:04:45;;;;;;;2.83;2.63;;;17.30;99.90;;;;;;5047873;28;20299;-76
2023/07/02 05:07:12;;;;;;;6.13;2.50;;;17.40;99.90;;;;;;5047795;28;20239;-76
2023/07/02 05:09:39;;;;;;;5.53;3.10;;;17.40;99.90;;;;;;5047988;28;20214;-76
2023/07/02 05:12:06;;;;;;;5.17;2.73;;;17.50;99.90;;;;;;5047662;28;20219;-76
2023/07/02 05:14:33;;;;;;;3.73;2.93;;;17.30;99.90;;;;;;5047342;28;20287;-76
2023/07/02 05:17:00;;;;;;;2.77;2.57;;;17.30;99.90;;;;;;5047239;28;20669;-76
2023/07/02 05:19:27;;;;;;;9.63;2.60;;;17.30;99.90;;;;;;5046633;28;20309;-76
2023/07/02 05:21:55;;;;;;;3.57;2.93;;;17.30;99.90;;;;;;5047358;28;20319;-76
2023/07/02 05:24:22;;;;;;;4.30;2.87;;;17.30;99.90;;;;;;5047359;28;20257;-78
2023/07/02 05:26:50;;;;;;;4.90;2.73;;;17.30;99.90;;;;;;5048007;28;20219;-78
2023/07/02 05:29:17;;;;;;;4.33;3.07;;;17.40;99.90;;;;;;5047964;28;20278;-77
2023/07/02 05:31:44;;;;;;;3.77;2.57;;;17.40;99.90;;;;;;5048008;28;20294;-76
2023/07/02 05:34:11;;;;;;;5.07;2.40;;;17.40;99.90;;;;;;5046614;28;20299;-77
2023/07/02 05:36:39;;;;;;;3.33;2.50;;;17.50;99.90;;;;;;5048031;28;20303;-77
2023/07/02 05:39:07;;;;;;;3.10;2.47;;;17.50;99.90;;;;;;5047923;28;20764;-77
2023/07/02 05:41:34;;;;;;;3.07;2.50;;;17.40;99.90;;;;;;5047270;28;20259;-77
2023/07/02 05:44:01;;;;;;;4.10;2.60;;;17.50;99.90;;;;;;5048133;28;20291;-77
2023/07/02 05:46:28;;;;;;;2.83;2.60;;;17.50;99.90;;;;;;5047371;28;20298;-76
2023/07/02 05:48:55;;;;;;;2.77;2.57;;;17.50;99.90;;;;;;5047568;28;20303;-77
2023/07/02 05:51:23;;;;;;;3.23;2.50;;;17.50;99.90;;;;;;5047028;28;20209;-79
2023/07/02 05:53:50;;;;;;;3.47;2.70;;;17.60;99.90;;;;;;5047466;28;20214;-76
2023/07/02 05:56:18;;;;;;;3.37;2.70;;;17.60;99.90;;;;;;5046752;28;20212;-77
2023/07/02 05:58:46;;;;;;;2.63;2.43;;;17.60;99.90;;;;;;5047351;28;20635;-73
2023/07/02 06:01:14;;;;;;;3.27;2.43;;;17.70;99.90;;;;;;5046902;28;20228;-77
2023/07/02 06:03:42;;;;;;;2.63;2.20;;;17.80;99.90;;;;;;5047514;28;20219;-78
2023/07/02 06:06:09;;;;;;;2.70;2.50;;;17.90;99.90;;;;;;5047193;28;20247;-77
2023/07/02 06:08:36;;;;;;;3.70;2.63;;;17.90;99.90;;;;;;5046962;28;21223;-77
2023/07/02 06:11:02;;;;;;;2.93;2.30;;;17.90;99.90;;;;;;5047008;28;20223;-77
2023/07/02 06:13:31;;;;;;;4.50;2.97;;;17.90;99.90;;;;;;5046596;28;20268;-77
2023/07/02 06:15:58;;;;;;;5.87;2.90;;;17.90;99.90;;;;;;5046133;28;20240;-76
2023/07/02 06:18:24;;;;;;;2.57;2.37;;;17.90;99.90;;;;;;5046277;28;20197;-76
2023/07/02 06:20:51;;;;;;;2.67;2.47;;;17.90;99.90;;;;;;5046509;28;20310;-77
2023/07/02 06:23:18;;;;;;;4.40;2.70;;;17.90;99.90;;;;;;5046283;28;20212;-79
2023/07/02 06:25:45;;;;;;;4.73;2.43;;;17.90;99.90;;;;;;5044094;28;20200;-77
2023/07/02 06:28:12;;;;;;;2.70;2.30;;;17.90;99.90;;;;;;5042410;28;20196;-77
2023/07/02 06:30:40;;;;;;;6.23;3.00;;;18.00;99.90;;;;;;5044644;28;20299;-78
2023/07/02 06:33:07;;;;;;;5.50;2.53;;;18.00;99.90;;;;;;5044785;28;20227;-77
2023/07/02 06:35:34;;;;;;;4.90;2.80;;;18.00;99.90;;;;;;5040091;28;20204;-78
2023/07/02 06:38:01;;;;;;;3.93;2.80;;;18.10;99.90;;;;;;5046281;28;20238;-74
2023/07/02 06:40:28;;;;;;;3.13;2.37;;;18.20;99.90;;;;;;5040797;28;20652;-79
2023/07/02 06:42:55;;;;;;;3.17;2.40;;;18.30;99.90;;;;;;5046739;28;20327;-78
2023/07/02 06:45:22;;;;;;;4.60;2.40;;;18.40;99.90;;;;;;5047439;28;20915;-79
2023/07/02 06:47:51;;;;;;;3.87;2.30;;;18.40;99.90;;;;;;5034919;28;20235;-78
2023/07/02 06:50:18;;;;;;;2.80;2.60;;;18.40;99.90;;;;;;5044987;28;20286;-78
2023/07/02 06:52:46;;;;;;;3.03;2.50;;;18.40;99.90;;;;;;5044557;28;20218;-77
2023/07/02 06:55:12;;;;;;;5.53;2.37;;;18.40;99.90;;;;;;5044864;28;20212;-77
2023/07/02 06:57:44;;;;;;;3.30;2.57;;;18.30;99.90;;;;;;5044959;28;20243;-77
2023/07/02 07:00:12;;;;;;;3.77;2.50;;;18.30;99.90;;;;;;5045817;28;20200;-78
2023/07/02 07:02:39;;;;;;;2.93;2.27;;;18.40;99.90;;;;;;5037316;28;20807;-79
2023/07/02 07:05:08;;;;;;;2.90;2.60;;;18.30;99.90;;;;;;5045781;28;20203;-77
2023/07/02 07:07:35;;;;;;;4.07;2.60;;;18.30;99.90;;;;;;5036216;28;20817;-78
2023/07/02 07:10:03;;;;;;;2.50;2.30;;;18.40;99.90;;;;;;5045415;28;20335;-77
2023/07/02 07:12:30;;;;;;;3.30;2.90;;;18.40;99.90;;;;;;5045057;28;20213;-77
2023/07/02 07:14:57;;;;;;;4.50;2.50;;;18.40;99.90;;;;;;5045173;28;20628;-77
2023/07/02 07:17:24;;;;;;;4.93;2.70;;;18.40;99.90;;;;;;5045230;28;20211;-78
2023/07/02 07:19:51;;;;;;;5.03;2.60;;;18.40;99.90;;;;;;5045760;28;20212;-78
2023/07/02 07:22:19;;;;;;;4.43;4.03;;;18.40;99.90;;;;;;5044950;28;20262;-78
2023/07/02 07:24:46;;;;;;;3.07;2.77;;;18.50;99.90;;;;;;5044502;28;20294;-77
2023/07/02 07:27:13;;;;;;;4.57;2.93;;;18.60;99.90;;;;;;5044732;28;20811;-77
2023/07/02 07:29:40;;;;;;;3.40;2.33;;;18.70;99.90;;;;;;5034891;28;20592;-78
2023/07/02 07:32:08;;;;;;;2.87;2.50;;;18.70;99.90;;;;;;5024723;28;20234;-77
2023/07/02 07:34:35;;;;;;;3.47;2.40;;;18.70;99.90;;;;;;5023910;28;20250;-77
2023/07/02 07:37:02;;;;;;;2.87;2.67;;;18.80;99.90;;;;;;5024025;28;20212;-77
2023/07/02 07:39:30;;;;;;;3.97;2.67;;;18.80;99.90;;;;;;5023863;28;20659;-77
2023/07/02 07:41:57;;;;;;;5.30;2.57;;;18.80;99.90;;;;;;5030751;28;20580;-77
2023/07/02 07:44:28;;;;;;;5.77;2.60;;;18.60;99.90;;;;;;5043915;28;20691;-78
2023/07/02 07:46:55;;;;;;;4.97;2.63;;;18.60;99.90;;;;;;5044350;28;20203;-77
2023/07/02 07:49:22;;;;;;;3.87;2.70;;;18.60;99.90;;;;;;5044704;28;20293;-78
2023/07/02 07:51:49;;;;;;;4.03;3.73;;;18.60;99.90;;;;;;5044000;28;20679;-78
2023/07/02 07:54:17;;;;;;;4.50;2.77;;;18.50;99.90;;;;;;5043752;28;20204;-77
2023/07/02 07:56:45;;;;;;;2.67;2.43;;;18.40;99.90;;;;;;5043199;28;20216;-77
2023/07/02 07:59:14;;;;;;;5.50;2.53;;;18.40;99.90;;;;;;5043749;28;20212;-77
2023/07/02 08:01:41;;;;;;;3.87;3.07;;;18.30;99.90;;;;;;5043569;28;20270;-78
2023/07/02 08:04:09;;;;;;;5.87;2.77;;;18.30;99.90;;;;;;5043781;28;20631;-78
2023/07/02 08:06:35;;;;;;;3.53;2.70;;;18.30;99.90;;;;;;5043161;28;20215;-77
2023/07/02 08:09:03;;;;;;;5.37;2.90;;;18.30;99.90;;;;;;5024521;28;20213;-77
2023/07/02 08:11:30;;;;;;;3.27;2.97;;;18.20;99.90;;;;;;5025642;28;20266;-77
2023/07/02 08:13:58;;;;;;;2.73;2.40;;;18.20;99.90;;;;;;5043707;28;20207;-76
2023/07/02 08:16:25;;;;;;;4.67;3.10;;;18.10;99.90;;;;;;5043728;28;20301;-77
2023/07/02 08:18:52;;;;;;;3.27;2.70;;;18.20;99.90;;;;;;5043608;28;20293;-78
2023/07/02 08:21:19;;;;;;;3.00;2.80;;;18.20;99.90;;;;;;5043518;28;20295;-78
2023/07/02 08:23:46;;;;;;;3.50;2.83;;;18.30;99.90;;;;;;5044037;28;20690;-77
2023/07/02 08:26:14;;;;;;;3.73;3.00;;;18.30;99.90;;;;;;5043286;28;20730;-77
2023/07/02 08:28:41;;;;;;;3.67;3.23;;;18.30;99.90;;;;;;5042960;28;20204;-77
2023/07/02 08:31:09;;;;;;;5.27;2.90;;;18.30;99.90;;;;;;5043274;28;20216;-77
2023/07/02 08:33:36;;;;;;;5.60;3.10;;;18.30;99.90;;;;;;5042769;28;20208;-77
2023/07/02 08:36:03;;;;;;;3.30;3.00;;;18.30;99.90;;;;;;5043632;28;20230;-77
2023/07/02 08:38:30;;;;;;;4.47;2.70;;;18.30;99.90;;;;;;5034558;28;20335;-77
2023/07/02 08:40:58;;;;;;;4.83;3.20;;;18.30;99.90;;;;;;5038923;28;20231;-77
2023/07/02 08:43:27;;;;;;;6.50;3.03;;;18.30;99.90;;;;;;5035282;28;20718;-77
2023/07/02 08:45:54;;;;;;;3.60;3.30;;;18.30;99.90;;;;;;5041004;28;20732;-78
2023/07/02 08:48:24;;;;;;;5.53;3.53;;;18.30;99.90;;;;;;5036073;28;20263;-77
2023/07/02 08:50:51;;;;;;;6.10;3.77;;;18.30;99.90;;;;;;5037306;28;20208;-79
2023/07/02 08:53:18;;;;;;;4.10;3.20;;;18.30;99.90;;;;;;5034659;28;20208;-78
2023/07/02 08:55:45;;;;;;;3.53;3.10;;;18.30;99.90;;;;;;5040884;28;20224;-78
2023/07/02 08:58:12;;;;;;;5.30;3.80;;;18.30;99.90;;;;;;5035310;28;20292;-79
2023/07/02 09:00:39;;;;;;;3.93;3.60;;;18.30;99.90;;;;;;5042833;28;20211;-78
2023/07/02 09:03:14;;;;;;;5.60;3.53;;;18.40;99.90;;;;;;5043671;28;20235;-78
2023/07/02 09:05:51;;;;;;;6.33;3.80;;;18.40;99.90;;;;;;5043573;28;20746;-77
2023/07/02 09:08:24;;;;;;;4.10;3.70;;;18.50;99.90;;;;;;5044910;28;21077;-78
2023/07/02 09:10:51;;;;;;;6.33;4.30;;;18.60;99.90;;;;;;5047174;28;20279;-79
2023/07/02 09:13:18;;;;;;;3.80;3.50;;;18.60;99.90;;;;;;5047490;28;20216;-78
2023/07/02 09:15:45;;;;;;;6.33;3.90;;;18.70;99.90;;;;;;5047590;28;20682;-78
2023/07/02 09:18:19;;;;;;;3.90;3.50;;;18.70;99.90;;;;;;5047942;28;20591;-78
2023/07/02 09:20:46;;;;;;;4.63;3.67;;;18.80;99.90;;;;;;5047175;28;20294;-78
2023/07/02 09:23:15;;;;;;;4.73;3.73;;;18.90;99.90;;;;;;5047275;28;20228;-78
2023/07/02 09:25:42;;;;;;;6.40;4.30;;;18.90;99.90;;;;;;5048061;28;20294;-78
2023/07/02 09:28:16;;;;;;;7.10;4.53;;;18.90;99.90;;;;;;5048084;28;20362;-77
2023/07/02 09:30:54;;;;;;;6.90;4.33;;;19.10;99.90;;;;;;5047560;28;20229;-78
2023/07/02 09:33:21;;;;;;;6.97;4.87;;;19.20;99.90;;;;;;5047537;28;21055;-77
2023/07/02 09:35:50;;;;;;;5.63;4.37;;;19.20;99.90;;;;;;5047297;28;20218;-78
2023/07/02 09:38:18;;;;;;;9.43;4.53;;;19.20;99.90;;;;;;5028392;28;20244;-77
2023/07/02 09:40:48;;;;;;;6.83;4.90;;;19.20;99.90;;;;;;5026704;28;20319;-77
2023/07/02 09:43:15;;;;;;;7.90;5.07;;;19.10;99.90;;;;;;5031426;28;20263;-78
2023/07/02 09:45:44;;;;;;;10.83;5.60;;;19.30;99.90;;;;;;5046652;28;20306;-78
2023/07/02 09:48:14;;;;;;;7.90;5.13;;;19.50;99.90;;;;;;5046739;28;20211;-78
2023/07/02 09:50:41;;;;;;;9.23;5.03;;;19.80;99.90;;;;;;5045079;28;20200;-77
2023/07/02 09:53:08;;;;;;;7.03;5.00;;;19.60;99.90;;;;;;5047335;28;20212;-77
2023/07/02 09:55:37;;;;;;;11.07;6.13;;;19.60;99.90;;;;;;5047373;28;20258;-76
2023/07/02 09:58:04;;;;;;;11.10;5.77;;;19.70;99.90;;;;;;5047371;28;20208;-76
2023/07/02 10:00:31;;;;;;;10.17;5.33;;;19.80;99.90;;;;;;5046558;28;20224;-76
2023/07/02 10:02:58;;;;;;;10.37;4.87;;;19.90;99.90;;;;;;5047068;28;20235;-76
2023/07/02 10:05:29;;;;;;;9.47;4.87;;;19.80;99.90;;;;;;5047124;28;20219;-76
2023/07/02 10:07:57;;;;;;;11.07;5.33;;;19.90;99.90;;;;;;5046880;28;20598;-76
2023/07/02 10:10:28;;;;;;;8.40;5.20;;;20.10;99.90;;;;;;5046743;28;20770;-76
2023/07/02 10:12:57;;;;;;;9.27;5.17;;;20.30;99.90;;;;;;5047020;28;20305;-76
2023/07/02 10:15:28;;;;;;;7.27;5.50;;;20.30;99.90;;;;;;5046146;28;20210;-77
2023/07/02 10:17:56;;;;;;;8.87;5.33;;;20.30;99.90;;;;;;5046470;28;20230;-81
2023/07/02 10:20:33;;;;;;;15.53;5.47;;;20.30;99.90;;;;;;5046128;28;20556;-77
2023/07/02 10:23:01;;;;;;;7.30;5.07;;;20.20;99.90;;;;;;5046931;28;20246;-78
2023/07/02 10:25:29;;;;;;;13.77;5.57;;;20.20;99.90;;;;;;5046497;28;20212;-77
2023/07/02 10:27:59;;;;;;;10.57;4.93;;;20.30;99.90;;;;;;5046602;28;21055;-77
2023/07/02 10:30:38;;;;;;;7.53;4.83;;;20.30;99.90;;;;;;5046833;28;20281;-76
2023/07/02 10:33:10;;;;;;;8.73;4.80;;;20.50;99.90;;;;;;5047097;28;20214;-77
2023/07/02 10:35:36;;;;;;;9.10;5.23;;;20.60;99.90;;;;;;5046815;28;20206;-80
2023/07/02 10:38:06;;;;;;;8.93;5.47;;;20.70;99.90;;;;;;5046075;28;20338;-79
2023/07/02 10:40:34;;;;;;;12.03;5.67;;;21.00;99.90;;;;;;5046814;28;20239;-79
2023/07/02 10:43:03;;;;;;;9.10;5.47;;;21.00;99.90;;;;;;5047128;28;20242;-80
2023/07/02 10:45:34;;;;;;;6.37;5.03;;;21.10;99.90;;;;;;5046621;28;20812;-79
2023/07/02 10:48:04;;;;;;;12.37;5.63;;;20.90;99.90;;;;;;5046501;28;20283;-74
2023/07/02 10:50:32;;;;;;;12.27;5.80;;;20.90;99.90;;;;;;5046351;28;20215;-77
2023/07/02 10:52:59;;;;;;;13.93;6.00;;;20.70;99.90;;;;;;5045760;28;20248;-78
2023/07/02 10:55:28;;;;;;;11.60;5.60;;;20.70;99.90;;;;;;5045710;28;20291;-78
2023/07/02 10:58:06;;;;;;;7.60;5.47;;;20.70;99.90;;;;;;5032863;28;20203;-78
2023/07/02 11:00:33;;;;;;;8.00;5.20;;;20.50;99.90;;;;;;5045547;28;20664;-78
2023/07/02 11:03:00;;;;;;;11.60;5.97;;;20.40;99.90;;;;;;5046615;28;20247;-78
2023/07/02 11:05:27;;;;;;;10.17;5.40;;;20.40;99.90;;;;;;5045476;28;20210;-78
2023/07/02 11:07:57;;;;;;;6.07;5.37;;;20.70;99.90;;;;;;5043015;28;20286;-78
2023/07/02 11:10:25;;;;;;;9.97;5.83;;;20.80;99.90;;;;;;5036535;28;20200;-78
2023/07/02 11:12:52;;;;;;;11.10;5.53;;;20.70;99.90;;;;;;5032507;28;20223;-78
2023/07/02 11:15:21;;;;;;;10.63;5.93;;;20.60;99.90;;;;;;5045538;28;20295;-78
2023/07/02 11:17:48;;;;;;;11.30;5.90;;;20.80;99.90;;;;;;5046239;28;20239;-77
2023/07/02 11:20:16;;;;;;;10.53;5.77;;;21.20;99.90;;;;;;5046151;28;20214;-78
2023/07/02 11:22:43;;;;;;;9.30;5.90;;;21.10;99.90;;;;;;5045869;28;20706;-77
2023/07/02 11:25:12;;;;;;;10.37;5.80;;;21.10;99.90;;;;;;5044964;28;20963;-77
2023/07/02 11:27:39;;;;;;;8.53;5.50;;;20.80;99.90;;;;;;5044546;28;20335;-78
2023/07/02 11:30:07;;;;;;;9.80;5.97;;;20.80;99.90;;;;;;5045675;28;20290;-77
2023/07/02 11:32:49;;;;;;;9.90;5.53;;;20.70;99.90;;;;;;5035675;28;20240;-78
2023/07/02 11:35:17;;;;;;;10.77;5.33;;;21.00;99.90;;;;;;5044121;28;20196;-77
2023/07/02 11:37:44;;;;;;;8.87;5.73;;;21.20;99.90;;;;;;5043634;28;20308;-76
2023/07/02 11:40:12;;;;;;;10.83;5.50;;;21.40;99.90;;;;;;5043743;28;20259;-77
2023/07/02 11:42:39;;;;;;;16.57;5.60;;;21.70;99.90;;;;;;5039393;28;20231;-77
2023/07/02 11:45:07;;;;;;;10.67;5.80;;;21.80;99.60;;;;;;5044253;28;20204;-77
2023/07/02 11:47:35;;;;;;;11.37;5.50;;;21.60;99.90;;;;;;5043735;28;20298;-76
2023/07/02 11:50:03;;;;;;;9.17;5.40;;;21.60;99.90;;;;;;5043982;28;20222;-78
2023/07/02 11:52:30;;;;;;;7.87;5.63;;;21.40;99.90;;;;;;5037477;28;20215;-77
2023/07/02 11:54:57;;;;;;;10.70;5.57;;;21.30;99.90;;;;;;5024363;28;20212;-77
2023/07/02 11:57:24;;;;;;;9.63;5.97;;;21.30;99.90;;;;;;5041018;28;20394;-77
2023/07/02 11:59:52;;;;;;;7.23;5.33;;;21.70;99.90;;;;;;5043464;28;20227;-78
2023/07/02 12:02:19;;;;;;;8.40;5.50;;;22.10;99.90;;;;;;5030908;28;20882;-77
2023/07/02 12:04:46;;;;;;;9.57;6.30;;;22.20;99.90;;;;;;5034729;28;20200;-77
2023/07/02 12:07:15;;;;;;;11.63;6.18;;;22.30;99.90;;;;;;5036191;28;20807;-78
2023/07/02 12:09:42;;;;;;;9.25;5.93;;;22.60;99.90;;;;;;5035656;28;20199;-78
2023/07/02 12:12:09;;;;;;;13.35;5.97;;;22.50;99.00;;;;;;5037130;28;20208;-78
2023/07/02 12:14:36;;;;;;;6.63;5.63;;;22.20;98.60;;;;;;5043063;28;20212;-78
2023/07/02 12:17:04;;;;;;;11.07;6.17;;;22.00;99.30;;;;;;5043022;28;20215;-78
2023/07/02 12:19:31;;;;;;;13.13;5.47;;;22.00;99.10;;;;;;5042979;28;20323;-78
2023/07/02 12:21:58;;;;;;;11.13;5.55;;;21.90;99.90;;;;;;5043128;28;20235;-79
2023/07/02 12:24:26;;;;;;;9.83;5.70;;;22.10;99.50;;;;;;5043277;28;20329;-79
2023/07/02 12:26:53;;;;;;;15.97;6.80;;;22.10;99.80;;;;;;5043878;28;20208;-78
2023/07/02 12:29:20;;;;;;;12.48;5.43;;;22.10;99.90;;;;;;5043067;28;20204;-78
2023/07/02 12:31:47;;;;;;;9.40;5.60;;;22.40;99.20;;;;;;5043081;28;20204;-78
2023/07/02 12:34:14;;;;;;;11.77;5.88;;;22.30;98.80;;;;;;5043436;28;20215;-78
2023/07/02 12:36:41;;;;;;;8.80;5.87;;;22.50;98.80;;;;;;5040456;28;20210;-77
2023/07/02 12:39:08;;;;;;;8.10;5.65;;;22.60;98.00;;;;;;5043493;28;20318;-78
2023/07/02 12:41:36;;;;;;;11.35;5.32;;;22.90;98.70;;;;;;5038962;28;20259;-77
2023/07/02 12:44:03;;;;;;;11.38;6.15;;;23.00;98.00;;;;;;5046327;28;20236;-77
2023/07/02 12:46:30;;;;;;;10.27;6.00;;;22.80;97.30;;;;;;5046454;28;20884;-78
2023/07/02 12:48:57;;;;;;;10.77;6.13;;;22.50;97.50;;;;;;5047103;28;20311;-78